createdAt,value
2023-01-04T00:01:53.579Z,101673.34
2023-01-04T00:04:20.317Z,101675.34
2023-01-04T00:06:46.968Z,101670.84
2023-01-04T00:09:14.257Z,101666.84
2023-01-04T00:11:40.952Z,101671.94
2023-01-04T00:14:07.601Z,101665.91
2023-01-04T00:16:34.326Z,101662.94
2023-01-04T00:19:01.023Z,101656.94
2023-01-04T00:21:30.271Z,101655.03
2023-01-04T00:23:59.648Z,101645.31
2023-01-04T00:26:31.643Z,101641.56
2023-01-04T00:29:06.625Z,101623.81
2023-01-04T00:31:34.606Z,101605.34
2023-01-04T00:34:03.668Z,101613.16
2023-01-04T00:36:31.196Z,101616.00
2023-01-04T00:39:10.057Z,101602.25
2023-01-04T00:42:01.636Z,101588.06
2023-01-04T00:44:30.252Z,101596.09
2023-01-04T00:46:57.933Z,101582.84
2023-01-04T00:49:24.919Z,101561.88
2023-01-04T00:51:51.793Z,101562.22
2023-01-04T00:54:18.975Z,101562.22
2023-01-04T00:56:46.064Z,101560.19
2023-01-04T00:59:14.485Z,101548.19
2023-01-04T01:01:42.743Z,101553.91
2023-01-04T01:04:12.657Z,101542.28
2023-01-04T01:06:39.592Z,101547.25
2023-01-04T01:09:06.754Z,101538.91
2023-01-04T01:11:36.497Z,101531.31
2023-01-04T01:14:03.908Z,101530.66
2023-01-04T01:19:17.429Z,101519.19
2023-01-04T01:21:44.086Z,101512.75
2023-01-04T01:24:16.858Z,101523.09
2023-01-04T01:26:43.854Z,101518.44
2023-01-04T01:29:11.013Z,101510.31
2023-01-04T01:31:37.753Z,101504.94
2023-01-04T01:34:04.853Z,101486.22
2023-01-04T01:36:31.591Z,101490.78
2023-01-04T01:38:58.347Z,101480.81
2023-01-04T01:41:30.586Z,101476.53
2023-01-04T01:44:00.767Z,101473.50
2023-01-04T01:46:49.857Z,101472.47
2023-01-04T01:49:33.280Z,101474.81
2023-01-04T01:52:05.263Z,101477.78
2023-01-04T01:54:43.048Z,101468.47
2023-01-04T01:57:13.689Z,101463.00
2023-01-04T01:59:42.945Z,101460.41
2023-01-04T02:02:11.134Z,101457.69
2023-01-04T02:04:41.890Z,101445.75
2023-01-04T02:07:12.034Z,101449.06
2023-01-04T02:09:39.529Z,101456.09
2023-01-04T02:12:10.780Z,101446.94
2023-01-04T02:14:37.991Z,101454.69
2023-01-04T02:17:07.524Z,101444.94
2023-01-04T02:20:16.162Z,101440.31
2023-01-04T02:23:20.405Z,101435.25
2023-01-04T02:26:08.846Z,101425.66
2023-01-04T02:29:14.008Z,101418.84
2023-01-04T02:31:41.845Z,101414.72
2023-01-04T02:34:47.251Z,101410.97
2023-01-04T02:37:20.279Z,101388.53
2023-01-04T02:40:08.714Z,101380.72
2023-01-04T02:43:20.134Z,101363.84
2023-01-04T02:45:54.617Z,101363.06
2023-01-04T02:48:39.888Z,101345.13
2023-01-04T02:51:29.238Z,101346.34
2023-01-04T02:53:59.392Z,101352.94
2023-01-04T02:56:46.503Z,101352.53
2023-01-04T02:59:55.111Z,101329.19
2023-01-04T03:03:04.818Z,101321.44
2023-01-04T03:06:09.206Z,101330.22
2023-01-04T03:09:05.079Z,101342.56
2023-01-04T03:12:00.376Z,101316.09
2023-01-04T03:14:33.757Z,101319.25
2023-01-04T03:17:11.037Z,101315.16
2023-01-04T03:19:51.555Z,101295.53
2023-01-04T03:22:48.348Z,101298.72
2023-01-04T03:25:34.784Z,101278.28
2023-01-04T03:28:20.411Z,101270.06
2023-01-04T03:31:31.314Z,101294.16
2023-01-04T03:34:16.626Z,101269.75
2023-01-04T03:37:00.738Z,101262.38
2023-01-04T03:40:03.963Z,101263.03
2023-01-04T03:43:02.974Z,101243.84
2023-01-04T03:45:59.480Z,101267.00
2023-01-04T03:48:37.177Z,101203.13
2023-01-04T03:51:27.031Z,101236.81
2023-01-04T03:54:04.482Z,101222.84
2023-01-04T03:56:32.517Z,101237.66
2023-01-04T03:59:00.359Z,101222.03
2023-01-04T04:01:28.341Z,101208.84
2023-01-04T04:04:14.394Z,101204.44
2023-01-04T04:06:59.655Z,101150.75
2023-01-04T04:09:26.529Z,101182.78
2023-01-04T04:11:53.162Z,101189.88
2023-01-04T04:14:19.852Z,101173.75
2023-01-04T04:16:46.662Z,101168.75
2023-01-04T04:19:13.506Z,101194.94
2023-01-04T04:21:40.415Z,101170.78
2023-01-04T04:24:07.552Z,101156.44
2023-01-04T04:26:34.287Z,101189.72
2023-01-04T04:29:00.996Z,101172.53
2023-01-04T04:31:27.837Z,101158.72
2023-01-04T04:33:54.494Z,101181.59
2023-01-04T04:36:21.196Z,101192.53
2023-01-04T04:38:47.961Z,101191.59
2023-01-04T04:41:33.608Z,101197.03
2023-01-04T04:44:00.389Z,101183.19
2023-01-04T04:46:27.538Z,101209.00
2023-01-04T04:48:54.380Z,101193.44
2023-01-04T04:51:21.087Z,101180.41
2023-01-04T04:53:49.088Z,101158.13
2023-01-04T04:56:16.485Z,101198.44
2023-01-04T04:58:43.248Z,101159.03
2023-01-04T05:01:10.084Z,101153.38
2023-01-04T05:03:38.557Z,101158.44
2023-01-04T05:06:05.746Z,101161.63
2023-01-04T05:08:36.229Z,101145.91
2023-01-04T05:11:13.064Z,101153.47
2023-01-04T05:13:40.206Z,101140.13
2023-01-04T05:16:08.208Z,101146.44
2023-01-04T05:18:35.540Z,101145.25
2023-01-04T05:21:02.926Z,101152.03
2023-01-04T05:23:29.686Z,101139.59
2023-01-04T05:25:59.937Z,101145.34
2023-01-04T05:28:26.946Z,101131.97
2023-01-04T05:30:55.856Z,101128.19
2023-01-04T05:33:26.757Z,101129.38
2023-01-04T05:35:54.792Z,101124.31
2023-01-04T05:38:22.373Z,101121.53
2023-01-04T05:40:50.199Z,101097.75
2023-01-04T05:43:18.598Z,101110.28
2023-01-04T05:45:49.185Z,101115.44
2023-01-04T05:48:16.269Z,101085.38
2023-01-04T05:50:43.594Z,101096.66
2023-01-04T05:53:10.321Z,101110.06
2023-01-04T05:55:37.168Z,101097.38
2023-01-04T05:58:04.068Z,101074.34
2023-01-04T06:00:30.747Z,101067.78
2023-01-04T06:02:57.800Z,101072.38
2023-01-04T06:05:25.527Z,101084.91
2023-01-04T06:07:52.666Z,101075.78
2023-01-04T06:10:20.069Z,101080.84
2023-01-04T06:12:47.797Z,101086.44
2023-01-04T06:15:14.871Z,101058.03
2023-01-04T06:17:41.917Z,101085.91
2023-01-04T06:20:10.241Z,101071.13
2023-01-04T06:22:37.757Z,101048.91
2023-01-04T06:25:05.319Z,101041.34
2023-01-04T06:27:32.175Z,101067.66
2023-01-04T06:29:58.825Z,101059.16
2023-01-04T06:32:25.621Z,101062.66
2023-01-04T06:34:52.293Z,101038.97
2023-01-04T06:37:19.050Z,101047.63
2023-01-04T06:39:45.848Z,101027.41
2023-01-04T06:42:32.447Z,101043.91
2023-01-04T06:44:59.338Z,101021.41
2023-01-04T06:47:26.078Z,101012.91
2023-01-04T06:49:53.108Z,101050.97
2023-01-04T06:52:20.064Z,101033.84
2023-01-04T06:54:46.985Z,101041.69
2023-01-04T06:57:13.973Z,101054.00
2023-01-04T06:59:40.795Z,101038.13
2023-01-04T07:02:07.569Z,101010.63
2023-01-04T07:04:34.445Z,101007.94
2023-01-04T07:07:02.240Z,101031.94
2023-01-04T07:09:28.956Z,101018.88
2023-01-04T07:11:55.625Z,101040.16
2023-01-04T07:14:22.402Z,101016.63
2023-01-04T07:16:49.163Z,101014.16
2023-01-04T07:19:15.970Z,101042.59
2023-01-04T07:21:42.664Z,101024.47
2023-01-04T07:24:09.581Z,101033.25
2023-01-04T07:26:36.524Z,101056.44
2023-01-04T07:29:15.902Z,101015.44
2023-01-04T07:31:51.254Z,101012.50
2023-01-04T07:34:20.148Z,101016.25
2023-01-04T07:36:47.927Z,101003.84
2023-01-04T07:39:14.990Z,101007.13
2023-01-04T07:41:42.617Z,100979.66
2023-01-04T07:44:11.104Z,100993.75
2023-01-04T07:46:38.995Z,101001.41
2023-01-04T07:49:09.132Z,101019.56
2023-01-04T07:51:39.737Z,100984.22
2023-01-04T07:54:06.581Z,100993.75
2023-01-04T07:56:33.303Z,101005.88
2023-01-04T07:58:59.938Z,101005.38
2023-01-04T08:01:27.867Z,100987.56
2023-01-04T08:03:54.733Z,100996.25
2023-01-04T08:06:21.892Z,100998.09
2023-01-04T08:08:49.521Z,101015.09
2023-01-04T08:11:18.958Z,100993.63
2023-01-04T08:13:46.283Z,101017.06
2023-01-04T08:16:40.944Z,101002.53
2023-01-04T08:19:17.104Z,100988.59
2023-01-04T08:21:44.796Z,101006.59
2023-01-04T08:24:22.046Z,100999.75
2023-01-04T08:26:48.924Z,100963.06
2023-01-04T08:29:15.937Z,100994.69
2023-01-04T08:31:42.689Z,101004.19
2023-01-04T08:34:10.394Z,100991.25
2023-01-04T08:36:46.486Z,100999.94
2023-01-04T08:39:13.202Z,100961.66
2023-01-04T08:42:06.128Z,100986.88
2023-01-04T08:44:39.429Z,100931.56
2023-01-04T08:47:06.292Z,100956.75
2023-01-04T08:49:33.233Z,100986.03
2023-01-04T08:52:00.031Z,100948.41
2023-01-04T08:54:26.754Z,100934.66
2023-01-04T08:56:53.591Z,100962.81
2023-01-04T08:59:20.405Z,100960.69
2023-01-04T09:01:47.291Z,100955.13
2023-01-04T09:04:14.144Z,100933.38
2023-01-04T09:06:40.964Z,100931.56
2023-01-04T09:09:07.611Z,100940.28
2023-01-04T09:11:35.450Z,100956.59
2023-01-04T09:14:07.989Z,100952.19
2023-01-04T09:16:37.000Z,100948.13
2023-01-04T09:19:04.789Z,100953.69
2023-01-04T09:21:31.523Z,100953.34
2023-01-04T09:23:59.167Z,100949.06
2023-01-04T09:26:26.052Z,100953.69
2023-01-04T09:28:54.449Z,100949.41
2023-01-04T09:31:26.239Z,100947.91
2023-01-04T09:36:39.927Z,100921.94
2023-01-04T09:39:06.948Z,100906.56
2023-01-04T09:41:58.988Z,100925.72
2023-01-04T09:47:30.369Z,100948.59
2023-01-04T09:50:05.609Z,100942.25
2023-01-04T09:52:40.878Z,100928.81
2023-01-04T09:55:41.350Z,100937.66
2023-01-04T09:58:27.053Z,100942.25
2023-01-04T10:01:07.372Z,100934.41
2023-01-04T10:03:39.634Z,100937.00
2023-01-04T10:06:10.772Z,100929.63
2023-01-04T10:08:37.871Z,100926.38
2023-01-04T10:11:23.461Z,100928.66
2023-01-04T10:13:56.049Z,100924.06
2023-01-04T10:17:20.389Z,100926.38
2023-01-04T10:23:01.773Z,100927.69
2023-01-04T10:25:53.034Z,100919.81
2023-01-04T10:28:29.184Z,100914.28
2023-01-04T10:31:39.411Z,100920.47
2023-01-04T10:34:30.533Z,100901.63
2023-01-04T10:37:00.978Z,100907.34
2023-01-04T10:39:36.153Z,100915.41
2023-01-04T10:42:35.174Z,100921.28
2023-01-04T10:45:22.624Z,100902.13
2023-01-04T10:48:07.793Z,100915.53
2023-01-04T10:50:42.553Z,100905.72
2023-01-04T10:53:15.105Z,100903.63
2023-01-04T10:56:24.377Z,100893.47
2023-01-04T10:59:02.628Z,100880.34
2023-01-04T11:01:38.110Z,100888.22
2023-01-04T11:04:20.316Z,100894.88
2023-01-04T11:06:54.100Z,100897.50
2023-01-04T11:09:33.050Z,100875.94
2023-01-04T11:12:01.085Z,100863.28
2023-01-04T11:14:35.149Z,100887.81
2023-01-04T11:17:06.132Z,100883.75
2023-01-04T11:19:34.078Z,100878.66
2023-01-04T11:22:03.698Z,100891.09
2023-01-04T11:24:34.059Z,100870.59
2023-01-04T11:27:13.535Z,100859.78
2023-01-04T11:30:01.921Z,100870.25
2023-01-04T11:32:37.576Z,100858.97
2023-01-04T11:35:04.799Z,100851.59
2023-01-04T11:37:41.247Z,100852.09
2023-01-04T11:40:21.824Z,100866.59
2023-01-04T11:43:10.108Z,100835.53
2023-01-04T11:45:37.083Z,100837.31
2023-01-04T11:48:10.875Z,100845.00
2023-01-04T11:50:48.467Z,100835.81
2023-01-04T11:53:30.460Z,100864.13
2023-01-04T11:56:21.411Z,100842.50
2023-01-04T11:59:09.131Z,100832.84
2023-01-04T12:01:38.926Z,100816.00
2023-01-04T12:04:16.690Z,100818.91
2023-01-04T12:06:43.395Z,100843.44
2023-01-04T12:09:15.224Z,100822.19
2023-01-04T12:11:46.326Z,100819.28
2023-01-04T12:14:22.279Z,100825.44
2023-01-04T12:17:07.706Z,100806.50
2023-01-04T12:19:36.821Z,100823.19
2023-01-04T12:22:05.166Z,100765.69
2023-01-04T12:24:35.578Z,100732.91
2023-01-04T12:27:04.685Z,100797.88
2023-01-04T12:29:43.692Z,100793.66
2023-01-04T12:32:13.192Z,100811.66
2023-01-04T12:34:39.766Z,100791.78
2023-01-04T12:37:07.258Z,100779.72
2023-01-04T12:39:44.869Z,100797.03
2023-01-04T12:42:16.143Z,100754.44
2023-01-04T12:44:51.988Z,100792.06
2023-01-04T12:47:37.313Z,100792.25
2023-01-04T12:50:12.489Z,100750.13
2023-01-04T12:55:43.843Z,100786.00
2023-01-04T12:58:44.132Z,100796.69
2023-01-04T13:01:29.695Z,100763.47
2023-01-04T13:04:05.223Z,100776.25
2023-01-04T13:06:42.899Z,100759.56
2023-01-04T13:09:23.815Z,100751.31
2023-01-04T13:12:20.230Z,100768.94
2023-01-04T13:14:55.900Z,100781.63
2023-01-04T13:17:25.960Z,100759.50
2023-01-04T13:19:52.749Z,100773.25
2023-01-04T13:22:28.792Z,100779.09
2023-01-04T13:24:59.428Z,100769.94
2023-01-04T13:27:27.519Z,100765.63
2023-01-04T13:29:54.451Z,100760.44
2023-01-04T13:32:27.128Z,100775.94
2023-01-04T13:35:02.422Z,100754.75
2023-01-04T13:37:38.621Z,100782.75
2023-01-04T13:40:19.747Z,100771.75
2023-01-04T13:42:50.476Z,100777.34
2023-01-04T13:45:35.621Z,100784.56
2023-01-04T13:48:06.097Z,100781.00
2023-01-04T13:50:40.571Z,100755.03
2023-01-04T13:53:20.174Z,100779.00
2023-01-04T13:55:51.522Z,100779.78
2023-01-04T13:58:24.111Z,100792.00
2023-01-04T14:01:15.647Z,100740.28
2023-01-04T14:03:46.470Z,100787.38
2023-01-04T14:06:28.664Z,100774.31
2023-01-04T14:09:04.139Z,100784.00
2023-01-04T14:12:05.770Z,100794.63
2023-01-04T14:14:52.298Z,100795.72
2023-01-04T14:17:23.542Z,100774.88
2023-01-04T14:19:59.109Z,100774.06
2023-01-04T14:22:45.631Z,100779.38
2023-01-04T14:25:30.992Z,100784.84
2023-01-04T14:28:27.593Z,100778.59
2023-01-04T14:30:54.303Z,100779.66
2023-01-04T14:33:26.298Z,100748.78
2023-01-04T14:36:07.211Z,100750.66
2023-01-04T14:38:45.341Z,100774.25
2023-01-04T14:41:49.091Z,100772.44
2023-01-04T14:44:20.724Z,100772.44
2023-01-04T14:46:53.390Z,100777.53
2023-01-04T14:49:22.080Z,100759.59
2023-01-04T14:51:57.868Z,100758.16
2023-01-04T14:54:25.772Z,100761.50
2023-01-04T14:56:56.772Z,100756.00
2023-01-04T14:59:24.668Z,100764.31
2023-01-04T15:01:56.585Z,100774.81
2023-01-04T15:04:24.330Z,100750.88
2023-01-04T15:06:57.015Z,100755.56
2023-01-04T15:09:24.185Z,100746.16
2023-01-04T15:11:51.052Z,100724.44
2023-01-04T15:14:18.896Z,100737.81
2023-01-04T15:16:45.543Z,100724.88
2023-01-04T15:19:12.669Z,100739.25
2023-01-04T15:21:41.589Z,100711.47
2023-01-04T15:24:09.526Z,100733.84
2023-01-04T15:26:36.575Z,100737.75
2023-01-04T15:29:06.785Z,100683.22
2023-01-04T15:31:38.774Z,100735.56
2023-01-04T15:34:06.893Z,100726.25
2023-01-04T15:36:35.203Z,100727.25
2023-01-04T15:39:01.881Z,100718.47
2023-01-04T15:41:46.939Z,100743.34
2023-01-04T15:44:13.633Z,100722.53
2023-01-04T15:46:40.543Z,100714.44
2023-01-04T15:49:09.472Z,100741.25
2023-01-04T15:51:38.913Z,100766.88
2023-01-04T15:54:05.680Z,100768.09
2023-01-04T15:56:32.449Z,100743.19
2023-01-04T15:58:59.180Z,100718.38
2023-01-04T16:01:25.925Z,100755.06
2023-01-04T16:03:54.127Z,100745.00
2023-01-04T16:06:21.611Z,100736.69
2023-01-04T16:08:50.527Z,100751.63
2023-01-04T16:11:23.594Z,100742.13
2023-01-04T16:13:52.495Z,100740.50
2023-01-04T16:16:21.966Z,100754.34
2023-01-04T16:18:51.676Z,100748.56
2023-01-04T16:21:22.216Z,100748.72
2023-01-04T16:23:55.891Z,100718.38
2023-01-04T16:26:30.334Z,100670.84
2023-01-04T16:28:57.870Z,100715.03
2023-01-04T16:31:25.279Z,100720.00
2023-01-04T16:33:54.833Z,100712.13
2023-01-04T16:36:21.902Z,100735.75
2023-01-04T16:38:48.691Z,100742.19
2023-01-04T16:41:17.497Z,100752.97
2023-01-04T16:43:53.408Z,100748.38
2023-01-04T16:46:25.739Z,100753.69
2023-01-04T16:48:55.402Z,100726.66
2023-01-04T16:51:24.267Z,100743.31
2023-01-04T16:53:51.777Z,100748.91
2023-01-04T16:56:21.065Z,100758.97
2023-01-04T16:58:51.576Z,100766.66
2023-01-04T17:01:23.397Z,100734.97
2023-01-04T17:03:53.766Z,100754.63
2023-01-04T17:06:23.469Z,100765.91
2023-01-04T17:08:52.745Z,100768.91
2023-01-04T17:12:11.469Z,100771.31
2023-01-04T17:14:13.699Z,100744.41
2023-01-04T17:16:41.163Z,100735.13
2023-01-04T17:19:07.886Z,100743.59
2023-01-04T17:21:35.467Z,100743.75
2023-01-04T17:24:03.739Z,100740.56
2023-01-04T17:26:32.575Z,100739.69
2023-01-04T17:29:01.233Z,100741.31
2023-01-04T17:31:31.466Z,100744.75
2023-01-04T17:33:58.318Z,100738.63
2023-01-04T17:36:25.335Z,100722.34
2023-01-04T17:38:52.601Z,100760.44
2023-01-04T17:41:27.365Z,100769.44
2023-01-04T17:43:57.890Z,100757.16
2023-01-04T17:46:25.188Z,100772.13
2023-01-04T17:49:17.855Z,100756.06
2023-01-04T17:51:40.202Z,100764.56
2023-01-04T17:54:08.506Z,100750.81
2023-01-04T17:56:37.179Z,100773.13
2023-01-04T17:59:07.018Z,100745.41
2023-01-04T18:01:34.974Z,100745.41
2023-01-04T18:04:03.852Z,100754.25
2023-01-04T18:06:33.740Z,100745.78
2023-01-04T18:09:01.366Z,100724.09
2023-01-04T18:11:28.649Z,100723.63
2023-01-04T18:13:55.440Z,100739.47
2023-01-04T18:16:26.780Z,100725.19
2023-01-04T18:18:57.768Z,100694.66
2023-01-04T18:21:31.017Z,100672.41
2023-01-04T18:24:34.730Z,100622.03
2023-01-04T18:27:20.424Z,100670.44
2023-01-04T18:29:48.700Z,100684.63
2023-01-04T18:32:22.450Z,100704.72
2023-01-04T18:34:55.644Z,100665.41
2023-01-04T18:37:22.497Z,100618.06
2023-01-04T18:39:49.787Z,100692.22
2023-01-04T18:42:17.779Z,100612.16
2023-01-04T18:44:49.904Z,100562.31
2023-01-04T18:47:20.411Z,100578.22
2023-01-04T18:49:51.205Z,100672.25
2023-01-04T18:52:18.951Z,100698.31
2023-01-04T18:54:48.278Z,100652.69
2023-01-04T18:57:18.204Z,100691.53
2023-01-04T18:59:50.276Z,100647.00
2023-01-04T19:02:19.547Z,100624.19
2023-01-04T19:04:46.786Z,100775.34
2023-01-04T19:07:13.648Z,100677.72
2023-01-04T19:09:42.669Z,100743.66
2023-01-04T19:12:09.861Z,100623.53
2023-01-04T19:14:48.553Z,100660.34
2023-01-04T19:17:26.231Z,100665.69
2023-01-04T19:19:57.696Z,100695.31
2023-01-04T19:22:26.114Z,100683.75
2023-01-04T19:25:16.881Z,100706.63
2023-01-04T19:27:55.866Z,100725.19
2023-01-04T19:30:42.638Z,100672.28
2023-01-04T19:33:13.683Z,100723.03
2023-01-04T19:35:49.883Z,100768.13
2023-01-04T19:38:23.119Z,100724.34
2023-01-04T19:40:57.923Z,100730.28
2023-01-04T19:43:24.855Z,100754.47
2023-01-04T19:45:51.811Z,100761.84
2023-01-04T19:48:19.057Z,100704.41
2023-01-04T19:50:46.260Z,100763.38
2023-01-04T19:53:24.057Z,100744.81
2023-01-04T19:55:51.283Z,100693.22
2023-01-04T19:58:18.197Z,100741.50
2023-01-04T20:00:54.612Z,100815.91
2023-01-04T20:03:22.854Z,100732.09
2023-01-04T20:05:50.825Z,100787.25
2023-01-04T20:08:18.259Z,100776.19
2023-01-04T20:10:45.938Z,100804.56
2023-01-04T20:13:12.853Z,100758.00
2023-01-04T20:15:42.921Z,100782.97
2023-01-04T20:18:13.943Z,100720.81
2023-01-04T20:20:43.275Z,100716.09
2023-01-04T20:23:11.416Z,100731.09
2023-01-04T20:25:47.590Z,100777.47
2023-01-04T20:28:15.910Z,100794.75
2023-01-04T20:30:49.490Z,100785.00
2023-01-04T20:33:16.455Z,100749.94
2023-01-04T20:35:44.982Z,100747.31
2023-01-04T20:38:12.239Z,100825.31
2023-01-04T20:40:39.099Z,100813.84
2023-01-04T20:43:25.222Z,100819.09
2023-01-04T20:45:52.008Z,100816.75
2023-01-04T20:48:18.800Z,100809.94
2023-01-04T20:50:45.684Z,100816.44
2023-01-04T20:53:13.651Z,100810.72
2023-01-04T20:55:41.810Z,100810.38
2023-01-04T20:58:09.789Z,100807.09
2023-01-04T21:00:39.885Z,100810.00
2023-01-04T21:03:08.309Z,100827.91
2023-01-04T21:05:40.445Z,100808.97
2023-01-04T21:08:07.614Z,100815.84
2023-01-04T21:10:35.568Z,100816.25
2023-01-04T21:13:03.877Z,100830.72
2023-01-04T21:15:31.087Z,100813.97
2023-01-04T21:17:58.008Z,100825.06
2023-01-04T21:20:25.098Z,100798.38
2023-01-04T21:22:51.873Z,100831.44
2023-01-04T21:25:19.020Z,100840.72
2023-01-04T21:27:45.787Z,100748.50
2023-01-04T21:30:12.921Z,100767.44
2023-01-04T21:32:39.565Z,100842.69
2023-01-04T21:35:06.868Z,100828.78
2023-01-04T21:37:33.688Z,100823.03
2023-01-04T21:40:00.356Z,100843.81
2023-01-04T21:42:27.256Z,100824.84
2023-01-04T21:44:54.067Z,100824.69
2023-01-04T21:47:20.988Z,100845.50
2023-01-04T21:49:47.984Z,100830.81
2023-01-04T21:52:14.806Z,100847.81
2023-01-04T21:54:41.489Z,100799.69
2023-01-04T21:57:08.414Z,100844.50
2023-01-04T21:59:35.937Z,100858.75
2023-01-04T22:02:03.056Z,100817.94
2023-01-04T22:04:30.049Z,100832.31
2023-01-04T22:06:56.834Z,100825.78
2023-01-04T22:09:23.684Z,100820.41
2023-01-04T22:11:51.028Z,100822.56
2023-01-04T22:14:18.469Z,100831.69
2023-01-04T22:16:45.246Z,100833.16
2023-01-04T22:19:13.465Z,100868.31
2023-01-04T22:21:40.838Z,100867.97
2023-01-04T22:24:10.900Z,100841.69
2023-01-04T22:26:37.784Z,100834.97
2023-01-04T22:29:04.616Z,100860.63
2023-01-04T22:31:31.430Z,100854.91
2023-01-04T22:33:58.232Z,100852.13
2023-01-04T22:36:25.333Z,100858.19
2023-01-04T22:38:53.708Z,100865.38
2023-01-04T22:41:22.015Z,100864.38
2023-01-04T22:43:54.648Z,100868.66
2023-01-04T22:46:21.493Z,100834.16
2023-01-04T22:48:48.200Z,100859.81
2023-01-04T22:51:17.098Z,100867.81
2023-01-04T22:53:44.835Z,100860.13
2023-01-04T22:56:19.607Z,100891.84
2023-01-04T22:58:53.079Z,100892.84
2023-01-04T23:01:22.468Z,100840.03
2023-01-04T23:03:51.999Z,100871.28
2023-01-04T23:06:19.259Z,100888.59
2023-01-04T23:08:46.063Z,100902.66
2023-01-04T23:11:16.173Z,100884.50
2023-01-04T23:13:43.104Z,100900.38
2023-01-04T23:16:14.965Z,100872.56
2023-01-04T23:18:42.699Z,100909.53
2023-01-04T23:21:09.793Z,100896.25
2023-01-04T23:23:36.782Z,100917.56
2023-01-04T23:26:08.748Z,100904.78
2023-01-04T23:28:37.252Z,100917.06
2023-01-04T23:31:10.127Z,100870.13
2023-01-04T23:33:37.280Z,100903.28
2023-01-04T23:36:15.932Z,100915.38
2023-01-04T23:38:44.983Z,100900.34
2023-01-04T23:41:12.241Z,100848.84
2023-01-04T23:43:39.559Z,100923.41
2023-01-04T23:46:15.150Z,100937.16
2023-01-04T23:48:42.455Z,100927.34
2023-01-04T23:51:11.852Z,100925.38
2023-01-04T23:53:38.741Z,100921.44
2023-01-04T23:56:08.158Z,100926.34
2023-01-04T23:58:34.939Z,100927.16
